Terminal Aerodrome Forecast
Issued by NWS

Home | Current Version | Previous Version | Text Only | Print | Product List | Glossary On
Versions: 1 2 3 4 5 6 7 8
000
FTUS44 KBMX 271100 RRA
TAFANB
TAF
KANB 271141Z 2712/2812 07003KT P6SM OVC090
     FM271330 08004KT 5SM -RA OVC060
     FM271800 13006KT 5SM -RA BR BKN035 OVC050
     FM272200 14005KT 4SM -RA BR BKN015 OVC025
     FM280000 12005KT 2SM RA BR BKN007 OVC015=

USA.gov is the U.S. government's official web portal to all federal, state and local government web resources and services.